Time;durP1;ratioP1;P1;durP2;ratioP2;P2;SDS_P1;SDS_P2;PMS_P1;PMS_P2;Temp;Humidity;BMP_temperature;BMP_pressure;BME280_temperature;BME280_humidity;BME280_pressure;Samples;Min_cycle;Max_cycle;Signal;HPM_P1;HPM_P2
2023/10/23 00:01:08;;;;;;;;;;;7.10;99.90;;;;;;4860891;29;19932;-88
2023/10/23 00:03:34;;;;;;;;;;;7.10;99.90;;;;;;4861521;29;19928;-87
2023/10/23 00:05:59;;;;;;;;;;;7.10;99.90;;;;;;4846161;29;20355;-89
2023/10/23 00:08:25;;;;;;;;;;;7.00;99.90;;;;;;4860803;29;19928;-89
2023/10/23 00:10:51;;;;;;;;;;;7.00;99.90;;;;;;4830132;29;19983;-87
2023/10/23 00:13:16;;;;;;;;;;;7.00;99.90;;;;;;4860733;29;19935;-89
2023/10/23 00:15:42;;;;;;;;;;;7.00;99.90;;;;;;4860475;29;19981;-86
2023/10/23 00:18:08;;;;;;;;;;;7.00;99.90;;;;;;4860297;29;19928;-87
2023/10/23 00:20:33;;;;;;;;;;;6.90;99.90;;;;;;4861390;29;19928;-87
2023/10/23 00:22:59;;;;;;;;;;;6.90;99.90;;;;;;4846105;29;19928;-88
2023/10/23 00:25:25;;;;;;;;;;;6.90;99.90;;;;;;4861516;29;19979;-86
2023/10/23 00:27:50;;;;;;;;;;;6.90;99.90;;;;;;4860703;29;19936;-86
2023/10/23 00:30:16;;;;;;;;;;;6.90;99.90;;;;;;4860336;29;19935;-87
2023/10/23 00:32:41;;;;;;;;;;;6.90;99.90;;;;;;4860125;29;19928;-86
2023/10/23 00:35:07;;;;;;;;;;;6.90;99.90;;;;;;4860896;29;20284;-86
2023/10/23 00:37:34;;;;;;;;;;;6.90;99.90;;;;;;4863364;29;19935;-87
2023/10/23 00:39:59;;;;;;;;;;;6.90;99.90;;;;;;4861113;29;19928;-87
2023/10/23 00:42:25;;;;;;;;;;;6.90;99.90;;;;;;4859703;29;19951;-87
2023/10/23 00:44:51;;;;;;;;;;;6.90;99.90;;;;;;4860473;29;19928;-87
2023/10/23 00:47:21;;;;;;;;;;;7.00;99.90;;;;;;4860533;29;20040;-88
2023/10/23 00:49:47;;;;;;;;;;;7.00;99.90;;;;;;4845384;29;19928;-87
2023/10/23 00:52:12;;;;;;;;;;;7.00;99.90;;;;;;4860965;29;19934;-87
2023/10/23 00:54:38;;;;;;;;;;;7.00;99.90;;;;;;4844847;29;19935;-87
2023/10/23 00:57:04;;;;;;;;;;;6.90;99.90;;;;;;4860287;29;19928;-86
2023/10/23 00:59:29;;;;;;;;;;;6.90;99.90;;;;;;4861267;29;19928;-86
2023/10/23 01:01:56;;;;;;;;;;;6.80;99.90;;;;;;4860383;29;20388;-87
2023/10/23 01:04:22;;;;;;;;;;;6.80;99.90;;;;;;4860632;29;19981;-87
2023/10/23 01:06:49;;;;;;;;;;;6.90;99.90;;;;;;4844869;29;19959;-87
2023/10/23 01:09:16;;;;;;;;;;;6.80;99.90;;;;;;4860153;29;19928;-86
2023/10/23 01:11:41;;;;;;;;;;;6.80;99.90;;;;;;4859687;29;20368;-86
2023/10/23 01:14:07;;;;;;;;;;;6.70;99.90;;;;;;4860012;29;19936;-86
2023/10/23 01:16:32;;;;;;;;;;;6.80;99.90;;;;;;4860346;29;19928;-86
2023/10/23 01:18:58;;;;;;;;;;;6.70;99.90;;;;;;4844648;29;19939;-85
2023/10/23 01:21:23;;;;;;;;;;;6.60;99.90;;;;;;4844635;29;20027;-86
2023/10/23 01:23:50;;;;;;;;;;;6.60;99.90;;;;;;4860838;29;19952;-86
2023/10/23 01:26:16;;;;;;;;;;;6.60;99.90;;;;;;4844557;29;19929;-86
2023/10/23 01:28:41;;;;;;;;;;;6.60;99.90;;;;;;4860485;29;19935;-86
2023/10/23 01:31:07;;;;;;;;;;;6.60;99.90;;;;;;4860323;29;20309;-87
2023/10/23 01:33:33;;;;;;;;;;;6.60;99.90;;;;;;4859911;29;19967;-86
2023/10/23 01:35:59;;;;;;;;;;;6.60;99.90;;;;;;4860713;29;19932;-86
2023/10/23 01:38:24;;;;;;;;;;;6.70;99.90;;;;;;4859706;29;19934;-86
2023/10/23 01:40:50;;;;;;;;;;;6.60;99.90;;;;;;4859817;29;20379;-88
2023/10/23 01:43:16;;;;;;;;;;;6.60;99.90;;;;;;4829848;29;19928;-86
2023/10/23 01:45:41;;;;;;;;;;;6.60;99.90;;;;;;4845032;29;19928;-86
2023/10/23 01:48:07;;;;;;;;;;;6.50;99.90;;;;;;4845444;29;20440;-88
2023/10/23 01:50:32;;;;;;;;;;;6.50;99.90;;;;;;4861050;29;19985;-86
2023/10/23 01:52:58;;;;;;;;;;;6.40;99.90;;;;;;4846061;29;20272;-88
2023/10/23 01:55:23;;;;;;;;;;;6.40;99.90;;;;;;4863294;29;19971;-87
2023/10/23 01:57:49;;;;;;;;;;;6.40;99.90;;;;;;4863806;29;19935;-86
2023/10/23 02:00:15;;;;;;;;;;;6.30;99.90;;;;;;4865163;29;19932;-86
2023/10/23 02:02:40;;;;;;;;;;;6.30;99.90;;;;;;4863544;29;20079;-86
2023/10/23 02:05:06;;;;;;;;;;;6.20;99.90;;;;;;4862865;29;20416;-87
2023/10/23 02:07:32;;;;;;;;;;;6.20;99.90;;;;;;4863787;29;19928;-86
2023/10/23 02:09:57;;;;;;;;;;;6.10;99.90;;;;;;4863065;29;20328;-88
2023/10/23 02:12:23;;;;;;;;;;;6.20;99.90;;;;;;4862268;29;19928;-86
2023/10/23 02:14:52;;;;;;;;;;;6.10;99.90;;;;;;4862896;29;19932;-87
2023/10/23 02:17:18;;;;;;;;;;;6.10;99.90;;;;;;4846720;29;20015;-86
2023/10/23 02:19:44;;;;;;;;;;;6.10;99.90;;;;;;4862251;29;19943;-88
2023/10/23 02:22:10;;;;;;;;;;;6.10;99.90;;;;;;4862525;29;19935;-90
2023/10/23 02:24:35;;;;;;;;;;;6.20;99.90;;;;;;4847799;29;19932;-86
2023/10/23 02:27:01;;;;;;;;;;;6.10;99.90;;;;;;4863497;29;20372;-87
2023/10/23 02:29:26;;;;;;;;;;;6.10;99.90;;;;;;4862591;29;19928;-87
2023/10/23 02:31:52;;;;;;;;;;;6.10;99.90;;;;;;4847007;29;20060;-85
2023/10/23 02:34:17;;;;;;;;;;;6.10;99.90;;;;;;4846827;29;19995;-87
2023/10/23 02:36:43;;;;;;;;;;;6.10;99.90;;;;;;4862301;29;19935;-86
2023/10/23 02:39:09;;;;;;;;;;;6.10;99.90;;;;;;4862839;29;20448;-86
2023/10/23 02:41:35;;;;;;;;;;;6.10;99.90;;;;;;4846825;29;19932;-86
2023/10/23 02:44:01;;;;;;;;;;;6.10;99.90;;;;;;4862414;29;19984;-87
2023/10/23 02:46:26;;;;;;;;;;;6.10;99.90;;;;;;4846368;29;20343;-87
2023/10/23 02:48:52;;;;;;;;;;;6.20;99.90;;;;;;4862918;29;20006;-86
2023/10/23 02:51:18;;;;;;;;;;;6.10;99.90;;;;;;4861738;29;19928;-87
2023/10/23 02:53:43;;;;;;;;;;;6.20;99.90;;;;;;4847625;29;19964;-86
2023/10/23 02:56:10;;;;;;;;;;;6.30;99.90;;;;;;4862065;29;19989;-86
2023/10/23 02:58:36;;;;;;;;;;;6.30;99.90;;;;;;4862028;29;20448;-86
2023/10/23 03:01:01;;;;;;;;;;;6.30;99.90;;;;;;4862221;29;19983;-87
2023/10/23 03:03:27;;;;;;;;;;;6.30;99.90;;;;;;4847503;29;19953;-87
2023/10/23 03:05:52;;;;;;;;;;;6.30;99.90;;;;;;4864567;29;19953;-86
2023/10/23 03:08:18;;;;;;;;;;;6.30;99.90;;;;;;4863056;29;19935;-86
2023/10/23 03:10:43;;;;;;;;;;;6.30;99.90;;;;;;4862108;29;19980;-86
2023/10/23 03:13:09;;;;;;;;;;;6.40;99.90;;;;;;4861727;29;19931;-89
2023/10/23 03:15:36;;;;;;;;;;;6.30;99.90;;;;;;4846432;29;19957;-86
2023/10/23 03:18:03;;;;;;;;;;;6.20;99.90;;;;;;4845893;29;20007;-87
2023/10/23 03:20:29;;;;;;;;;;;6.20;99.90;;;;;;4861717;29;19932;-86
2023/10/23 03:22:55;;;;;;;;;;;6.20;99.90;;;;;;4861662;29;20291;-87
2023/10/23 03:25:20;;;;;;;;;;;6.10;99.90;;;;;;4861710;29;20141;-86
2023/10/23 03:27:46;;;;;;;;;;;6.10;99.90;;;;;;4846187;29;19996;-89
2023/10/23 03:30:11;;;;;;;;;;;6.10;99.90;;;;;;4861527;29;19935;-86
2023/10/23 03:32:37;;;;;;;;;;;6.00;99.90;;;;;;4860944;29;19928;-86
2023/10/23 03:35:03;;;;;;;;;;;6.00;99.90;;;;;;4846153;29;20057;-86
2023/10/23 03:37:28;;;;;;;;;;;6.00;99.90;;;;;;4862112;29;20426;-88
2023/10/23 03:39:54;;;;;;;;;;;6.00;99.90;;;;;;4861380;29;19928;-86
2023/10/23 03:42:20;;;;;;;;;;;6.10;99.90;;;;;;4861578;29;19976;-86
2023/10/23 03:44:45;;;;;;;;;;;6.10;99.90;;;;;;4861252;29;19935;-86
2023/10/23 03:47:11;;;;;;;;;;;6.10;99.90;;;;;;4860936;29;19935;-86
2023/10/23 03:49:36;;;;;;;;;;;6.10;99.90;;;;;;4861202;29;19935;-87
2023/10/23 03:52:02;;;;;;;;;;;6.20;99.90;;;;;;4860939;29;19928;-86
2023/10/23 03:54:28;;;;;;;;;;;6.20;99.90;;;;;;4845676;29;19932;-86
2023/10/23 03:56:53;;;;;;;;;;;6.20;99.90;;;;;;4861022;29;20034;-87
2023/10/23 03:59:19;;;;;;;;;;;6.10;99.90;;;;;;4861009;29;19939;-92
2023/10/23 04:01:44;;;;;;;;;;;6.20;99.90;;;;;;4861171;29;20009;-87
2023/10/23 04:04:10;;;;;;;;;;;6.20;99.90;;;;;;4846141;29;19935;-87
2023/10/23 04:06:38;;;;;;;;;;;6.20;99.90;;;;;;4846348;29;20349;-86
2023/10/23 04:09:03;;;;;;;;;;;6.20;99.90;;;;;;4860997;29;20292;-87
2023/10/23 04:11:29;;;;;;;;;;;6.20;99.90;;;;;;4861561;29;19932;-86
2023/10/23 04:13:54;;;;;;;;;;;6.10;99.90;;;;;;4861883;29;19928;-87
2023/10/23 04:16:20;;;;;;;;;;;6.10;99.90;;;;;;4860578;29;19935;-85
2023/10/23 04:18:46;;;;;;;;;;;6.10;99.90;;;;;;4860660;29;19980;-87
2023/10/23 04:21:12;;;;;;;;;;;6.00;99.90;;;;;;4860801;29;20047;-88
2023/10/23 04:23:38;;;;;;;;;;;5.90;99.90;;;;;;4861392;29;19928;-86
2023/10/23 04:26:05;;;;;;;;;;;5.90;99.90;;;;;;4845272;29;19928;-86
2023/10/23 04:28:30;;;;;;;;;;;5.90;99.90;;;;;;4860542;29;19935;-88
2023/10/23 04:30:56;;;;;;;;;;;5.90;99.90;;;;;;4845262;29;19928;-87
2023/10/23 04:33:22;;;;;;;;;;;5.90;99.90;;;;;;4845419;29;20098;-86
2023/10/23 04:35:51;;;;;;;;;;;5.90;99.90;;;;;;4860743;29;19928;-86
2023/10/23 04:38:17;;;;;;;;;;;5.90;99.90;;;;;;4860380;29;19928;-87
2023/10/23 04:40:44;;;;;;;;;;;5.80;99.90;;;;;;4861181;29;19928;-88
2023/10/23 04:43:10;;;;;;;;;;;5.80;99.90;;;;;;4861708;29;19955;-86
2023/10/23 04:45:36;;;;;;;;;;;5.70;99.90;;;;;;4860332;29;19935;-87
2023/10/23 04:48:02;;;;;;;;;;;5.70;99.90;;;;;;4860261;29;19928;-87
2023/10/23 04:50:30;;;;;;;;;;;5.60;99.90;;;;;;4829596;29;20020;-87
2023/10/23 04:52:55;;;;;;;;;;;5.60;99.90;;;;;;4860020;29;19981;-87
2023/10/23 04:55:21;;;;;;;;;;;5.50;99.90;;;;;;4860040;29;19932;-86
2023/10/23 04:57:47;;;;;;;;;;;5.50;99.90;;;;;;4845123;29;19940;-87
2023/10/23 05:00:13;;;;;;;;;;;5.50;99.90;;;;;;4860356;29;19935;-85
2023/10/23 05:02:39;;;;;;;;;;;5.40;99.90;;;;;;4860175;29;19932;-87
2023/10/23 05:05:05;;;;;;;;;;;5.40;99.90;;;;;;4861133;29;19928;-86
2023/10/23 05:07:31;;;;;;;;;;;5.50;99.90;;;;;;4846728;29;19932;-87
2023/10/23 05:09:56;;;;;;;;;;;5.50;99.90;;;;;;4860363;29;19937;-87
2023/10/23 05:12:22;;;;;;;;;;;5.50;99.90;;;;;;4860008;29;19932;-86
2023/10/23 05:14:47;;;;;;;;;;;5.60;99.90;;;;;;4860175;29;19928;-86
2023/10/23 05:17:15;;;;;;;;;;;5.60;99.90;;;;;;4859782;29;19928;-87
2023/10/23 05:19:41;;;;;;;;;;;5.70;99.90;;;;;;4860019;29;19928;-87
2023/10/23 05:22:06;;;;;;;;;;;5.80;99.90;;;;;;4844774;29;20400;-88
2023/10/23 05:24:32;;;;;;;;;;;5.70;99.90;;;;;;4844571;29;20273;-87
2023/10/23 05:26:57;;;;;;;;;;;5.70;99.90;;;;;;4860272;29;19980;-87
2023/10/23 05:29:23;;;;;;;;;;;5.70;99.90;;;;;;4848413;29;20356;-89
2023/10/23 05:31:49;;;;;;;;;;;5.70;99.90;;;;;;4864738;29;19932;-87
2023/10/23 05:34:14;;;;;;;;;;;5.70;99.90;;;;;;4865919;29;19928;-87
2023/10/23 05:36:40;;;;;;;;;;;5.70;99.90;;;;;;4864170;29;20019;-87
2023/10/23 05:39:06;;;;;;;;;;;5.70;99.90;;;;;;4863781;29;19928;-87
2023/10/23 05:41:31;;;;;;;;;;;5.80;99.90;;;;;;4864473;29;19928;-87
2023/10/23 05:43:57;;;;;;;;;;;5.80;99.90;;;;;;4863549;29;20078;-87
2023/10/23 05:46:22;;;;;;;;;;;5.90;99.90;;;;;;4848652;29;19928;-87
2023/10/23 05:48:48;;;;;;;;;;;5.90;99.90;;;;;;4864036;29;20032;-88
2023/10/23 05:51:14;;;;;;;;;;;5.90;99.90;;;;;;4864119;29;19935;-87
2023/10/23 05:53:39;;;;;;;;;;;6.00;99.90;;;;;;4863262;29;19928;-87
2023/10/23 05:56:06;;;;;;;;;;;6.00;99.90;;;;;;4863439;29;19984;-86
2023/10/23 05:58:32;;;;;;;;;;;6.00;99.90;;;;;;4864031;29;19928;-87
2023/10/23 06:01:03;;;;;;;;;;;5.90;99.90;;;;;;4863246;29;19928;-87
2023/10/23 06:03:29;;;;;;;;;;;5.90;99.90;;;;;;4864254;29;19932;-87
2023/10/23 06:05:54;;;;;;;;;;;5.80;99.90;;;;;;4863817;29;20279;-88
2023/10/23 06:08:20;;;;;;;;;;;5.70;99.90;;;;;;4862903;29;19978;-86
2023/10/23 06:10:45;;;;;;;;;;;5.80;99.90;;;;;;4847497;29;19928;-89
2023/10/23 06:13:11;;;;;;;;;;;5.70;99.90;;;;;;4863197;29;19934;-86
2023/10/23 06:15:37;;;;;;;;;;;5.60;99.90;;;;;;4847121;29;20436;-85
2023/10/23 06:18:04;;;;;;;;;;;5.60;99.90;;;;;;4862404;29;19928;-85
2023/10/23 06:20:30;;;;;;;;;;;5.60;99.90;;;;;;4863265;29;19932;-88
2023/10/23 06:22:55;;;;;;;;;;;5.60;99.90;;;;;;4863263;29;19928;-85
2023/10/23 06:25:21;;;;;;;;;;;5.60;99.90;;;;;;4862365;29;20405;-88
2023/10/23 06:27:47;;;;;;;;;;;5.60;99.90;;;;;;4862629;29;19928;-86
2023/10/23 06:30:12;;;;;;;;;;;5.70;99.90;;;;;;4862553;29;19928;-87
2023/10/23 06:32:38;;;;;;;;;;;5.70;99.90;;;;;;4862071;29;19929;-85
2023/10/23 06:35:04;;;;;;;;;;;5.70;99.90;;;;;;4862471;29;19981;-86
2023/10/23 06:37:33;;;;;;;;;;;5.80;99.90;;;;;;4847261;29;19932;-86
2023/10/23 06:39:58;;;;;;;;;;;5.90;99.90;;;;;;4863174;29;20039;-85
2023/10/23 06:42:25;;;;;;;;;;;5.90;99.90;;;;;;4862592;29;19992;-85
2023/10/23 06:44:51;;;;;;;;;;;6.00;99.90;;;;;;4863430;29;19967;-87
2023/10/23 06:47:16;;;;;;;;;;;6.00;99.90;;;;;;4863977;29;19977;-84
2023/10/23 06:49:45;;;;;;;;;;;6.00;99.90;;;;;;4861995;29;20269;-88
2023/10/23 06:52:11;;;;;;;;;;;6.00;99.90;;;;;;4861873;29;20357;-88
2023/10/23 06:54:36;;;;;;;;;;;6.00;99.90;;;;;;4863795;29;19935;-86
2023/10/23 06:57:06;;;;;;;;;;;6.00;99.90;;;;;;4861900;29;19932;-85
2023/10/23 06:59:33;;;;;;;;;;;6.00;99.90;;;;;;4862962;29;19928;-85
2023/10/23 07:01:59;;;;;;;;;;;6.10;99.90;;;;;;4863486;29;20026;-85
2023/10/23 07:04:24;;;;;;;;;;;6.10;99.90;;;;;;4862102;29;19974;-85
2023/10/23 07:06:52;;;;;;;;;;;6.00;99.90;;;;;;4863060;29;19928;-90
2023/10/23 07:09:18;;;;;;;;;;;6.00;99.90;;;;;;4862706;29;19928;-93
2023/10/23 07:11:46;;;;;;;;;;;6.00;99.90;;;;;;4831076;29;20447;-86
2023/10/23 07:14:13;;;;;;;;;;;6.00;99.90;;;;;;4862882;29;19928;-87
2023/10/23 07:16:38;;;;;;;;;;;6.00;99.90;;;;;;4862243;29;19984;-88
2023/10/23 07:19:04;;;;;;;;;;;6.10;99.90;;;;;;4864164;29;19928;-87
2023/10/23 07:21:30;;;;;;;;;;;6.10;99.90;;;;;;4865691;29;19928;-87
2023/10/23 07:23:56;;;;;;;;;;;6.10;99.90;;;;;;4868814;29;19928;-89
2023/10/23 07:26:21;;;;;;;;;;;6.10;99.90;;;;;;4868053;29;19928;-87
2023/10/23 07:28:47;;;;;;;;;;;6.10;99.90;;;;;;4864831;29;19932;-87
2023/10/23 07:31:13;;;;;;;;;;;6.10;99.90;;;;;;4861960;29;19928;-86
2023/10/23 07:33:39;;;;;;;;;;;6.20;99.90;;;;;;4862140;29;20347;-88
2023/10/23 07:36:09;;;;;;;;;;;6.30;99.90;;;;;;4861439;29;19928;-86
2023/10/23 07:38:35;;;;;;;;;;;6.40;99.90;;;;;;4861352;29;20376;-86
2023/10/23 07:41:01;;;;;;;;;;;6.50;99.90;;;;;;4861246;29;19974;-89
2023/10/23 07:43:27;;;;;;;;;;;6.60;99.90;;;;;;4861531;29;20341;-85
2023/10/23 07:45:53;;;;;;;;;;;6.70;99.90;;;;;;4861132;29;19936;-88
2023/10/23 07:48:20;;;;;;;;;;;6.80;99.90;;;;;;4861556;29;19932;-87
2023/10/23 07:50:46;;;;;;;;;;;7.00;99.90;;;;;;4861608;29;19928;-87
2023/10/23 07:53:12;;;;;;;;;;;7.10;99.90;;;;;;4861234;29;19951;-87
2023/10/23 07:55:37;;;;;;;;;;;7.30;99.90;;;;;;4861328;29;20265;-87
2023/10/23 07:58:03;;;;;;;;;;;7.40;99.90;;;;;;4861853;29;19935;-87
2023/10/23 08:00:29;;;;;;;;;;;7.60;99.90;;;;;;4862619;29;19975;-88
2023/10/23 08:02:54;;;;;;;;;;;7.80;99.90;;;;;;4862821;29;20405;-87
2023/10/23 08:05:20;;;;;;;;;;;7.90;99.90;;;;;;4862278;29;20014;-87
2023/10/23 08:07:45;;;;;;;;;;;8.00;99.90;;;;;;4862100;29;19932;-88
2023/10/23 08:10:11;;;;;;;;;;;8.10;99.90;;;;;;4845880;29;19990;-90
2023/10/23 08:12:37;;;;;;;;;;;8.20;99.90;;;;;;4845355;29;20292;-86
2023/10/23 08:15:02;;;;;;;;;;;8.20;99.90;;;;;;4861022;29;19928;-87
2023/10/23 08:17:28;;;;;;;;;;;8.30;99.90;;;;;;4860624;29;20455;-86
2023/10/23 08:19:54;;;;;;;;;;;8.30;99.90;;;;;;4860800;29;19932;-87
2023/10/23 08:22:20;;;;;;;;;;;8.30;99.90;;;;;;4862224;29;19979;-88
2023/10/23 08:24:46;;;;;;;;;;;8.30;99.90;;;;;;4860944;29;20415;-88
2023/10/23 08:27:11;;;;;;;;;;;8.30;99.90;;;;;;4860398;29;19928;-87
2023/10/23 08:29:37;;;;;;;;;;;8.40;99.90;;;;;;4863218;29;19916;-85
2023/10/23 08:32:03;;;;;;;;;;;8.40;99.90;;;;;;4860445;29;20376;-85
2023/10/23 08:34:28;;;;;;;;;;;8.50;99.90;;;;;;4860707;29;19928;-85
2023/10/23 08:36:54;;;;;;;;;;;8.50;99.90;;;;;;4845368;29;20022;-85
2023/10/23 08:39:20;;;;;;;;;;;8.50;99.90;;;;;;4861387;29;19944;-84
2023/10/23 08:41:46;;;;;;;;;;;8.60;99.90;;;;;;4862094;29;20345;-84
2023/10/23 08:44:12;;;;;;;;;;;8.60;99.90;;;;;;4860632;29;19967;-84
2023/10/23 08:46:39;;;;;;;;;;;8.70;99.90;;;;;;4860601;29;19935;-84
2023/10/23 08:49:05;;;;;;;;;;;8.80;99.90;;;;;;4860749;29;19951;-86
2023/10/23 08:51:31;;;;;;;;;;;9.00;99.90;;;;;;4861490;29;20364;-85
2023/10/23 08:54:06;;;;;;;;;;;9.10;99.90;;;;;;4860630;29;19932;-84
2023/10/23 08:56:37;;;;;;;;;;;9.20;99.90;;;;;;4861431;29;19935;-84
2023/10/23 08:59:03;;;;;;;;;;;9.30;99.90;;;;;;4861726;29;20407;-84
2023/10/23 09:01:29;;;;;;;;;;;9.30;99.90;;;;;;4861413;29;19930;-85
2023/10/23 09:03:55;;;;;;;;;;;9.40;99.90;;;;;;4862848;29;19928;-84
2023/10/23 09:06:20;;;;;;;;;;;9.40;99.90;;;;;;4865100;29;19989;-85
2023/10/23 09:08:46;;;;;;;;;;;9.50;99.90;;;;;;4865105;29;19975;-84
2023/10/23 09:11:12;;;;;;;;;;;9.60;99.90;;;;;;4865337;29;19975;-84
2023/10/23 09:13:38;;;;;;;;;;;9.80;99.90;;;;;;4865062;29;20443;-88
2023/10/23 09:16:10;;;;;;;;;;;9.90;99.90;;;;;;4865041;29;19928;-85
2023/10/23 09:18:46;;;;;;;;;;;10.00;99.90;;;;;;4863254;29;19928;-84
2023/10/23 09:21:12;;;;;;;;;;;10.10;99.90;;;;;;4864881;29;19928;-84
2023/10/23 09:23:53;;;;;;;;;;;10.20;99.90;;;;;;4863998;29;20020;-84
2023/10/23 09:26:22;;;;;;;;;;;10.20;99.90;;;;;;4863925;29;19980;-84
2023/10/23 09:28:49;;;;;;;;;;;10.20;99.90;;;;;;4863607;29;19928;-84
2023/10/23 09:31:15;;;;;;;;;;;10.20;99.90;;;;;;4865166;29;20283;-84
2023/10/23 09:33:43;;;;;;;;;;;10.30;99.90;;;;;;4863816;29;20015;-83
2023/10/23 09:36:09;;;;;;;;;;;10.40;99.90;;;;;;4864636;29;19931;-84
2023/10/23 09:38:34;;;;;;;;;;;10.40;99.90;;;;;;4863643;29;19936;-84
2023/10/23 09:41:00;;;;;;;;;;;10.40;99.90;;;;;;4863669;29;19929;-84
2023/10/23 09:43:26;;;;;;;;;;;10.40;99.90;;;;;;4864850;29;19935;-85
2023/10/23 09:45:52;;;;;;;;;;;10.50;99.90;;;;;;4863802;29;19929;-85
2023/10/23 09:48:22;;;;;;;;;;;10.50;99.90;;;;;;4864418;29;19932;-92
2023/10/23 09:50:49;;;;;;;;;;;10.50;99.90;;;;;;4863766;29;19928;-87
2023/10/23 09:53:16;;;;;;;;;;;10.60;99.90;;;;;;4864446;29;19928;-87
2023/10/23 09:55:44;;;;;;;;;;;10.60;99.90;;;;;;4864673;29;19936;-86
2023/10/23 09:58:17;;;;;;;;;;;10.60;99.90;;;;;;4848511;29;20110;-87
2023/10/23 10:00:46;;;;;;;;;;;10.70;99.90;;;;;;4847888;29;19928;-84
2023/10/23 10:03:12;;;;;;;;;;;10.80;99.90;;;;;;4863503;29;19935;-85
2023/10/23 10:05:41;;;;;;;;;;;10.90;99.90;;;;;;4847822;29;19931;-83
2023/10/23 10:08:18;;;;;;;;;;;11.00;99.90;;;;;;4848032;29;19928;-86
2023/10/23 10:10:43;;;;;;;;;;;11.10;99.90;;;;;;4863700;29;20391;-85
2023/10/23 10:13:10;;;;;;;;;;;11.20;99.90;;;;;;4862434;29;20023;-84
2023/10/23 10:15:36;;;;;;;;;;;11.30;99.90;;;;;;4862793;29;19939;-84
2023/10/23 10:18:01;;;;;;;;;;;11.40;99.90;;;;;;4862081;29;19931;-84
2023/10/23 10:20:27;;;;;;;;;;;11.50;99.90;;;;;;4862868;29;20016;-84
2023/10/23 10:23:05;;;;;;;;;;;11.60;99.90;;;;;;4847570;29;19928;-84
2023/10/23 10:25:32;;;;;;;;;;;11.70;99.90;;;;;;4862522;29;19986;-84
2023/10/23 10:27:58;;;;;;;;;;;11.80;99.90;;;;;;4863767;29;19928;-89
2023/10/23 10:30:43;;;;;;;;;;;11.80;99.90;;;;;;4864202;29;20245;-85
2023/10/23 10:33:31;;;;;;;;;;;11.90;99.90;;;;;;4863189;29;19936;-85
2023/10/23 10:35:58;;;;;;;;;;;11.90;99.90;;;;;;4863785;29;19928;-85
2023/10/23 10:38:24;;;;;;;;;;;11.90;99.90;;;;;;4863373;29;20384;-85
2023/10/23 10:41:14;;;;;;;;;;;12.00;99.90;;;;;;4862527;29;19932;-88
2023/10/23 10:43:39;;;;;;;;;;;12.00;99.90;;;;;;4863385;29;20002;-85
2023/10/23 10:46:23;;;;;;;;;;;12.00;99.90;;;;;;4862328;29;19928;-86
2023/10/23 10:48:49;;;;;;;;;;;12.00;99.90;;;;;;4846933;29;19932;-86
2023/10/23 10:51:16;;;;;;;;;;;12.10;99.90;;;;;;4862023;29;20011;-86
2023/10/23 10:53:42;;;;;;;;;;;12.10;99.90;;;;;;4862624;29;19928;-86
2023/10/23 10:56:08;;;;;;;;;;;12.10;99.90;;;;;;4864010;29;19928;-87
2023/10/23 10:58:35;;;;;;;;;;;12.10;99.90;;;;;;4863064;29;19982;-86
2023/10/23 11:01:02;;;;;;;;;;;12.10;99.90;;;;;;4847121;29;19928;-87
2023/10/23 11:03:29;;;;;;;;;;;12.10;99.90;;;;;;4862077;29;20372;-87
2023/10/23 11:05:55;;;;;;;;;;;12.20;99.90;;;;;;4863095;29;20284;-87
2023/10/23 11:08:20;;;;;;;;;;;12.20;99.90;;;;;;4862209;29;19935;-84
2023/10/23 11:10:46;;;;;;;;;;;12.20;99.90;;;;;;4862863;29;19931;-85
2023/10/23 11:13:15;;;;;;;;;;;12.10;99.90;;;;;;4863342;29;19935;-85
2023/10/23 11:15:44;;;;;;;;;;;12.10;99.90;;;;;;4861930;29;19928;-86
2023/10/23 11:18:10;;;;;;;;;;;12.10;99.90;;;;;;4862542;29;19935;-85
2023/10/23 11:20:36;;;;;;;;;;;12.20;99.90;;;;;;4862421;29;19928;-88
2023/10/23 11:23:01;;;;;;;;;;;12.20;99.90;;;;;;4862099;29;19928;-86
2023/10/23 11:25:28;;;;;;;;;;;12.30;99.90;;;;;;4862023;29;19928;-86
2023/10/23 11:27:54;;;;;;;;;;;12.40;99.90;;;;;;4862579;29;20348;-86
2023/10/23 11:30:23;;;;;;;;;;;12.50;99.90;;;;;;4862428;29;19932;-87
2023/10/23 11:32:50;;;;;;;;;;;12.50;99.90;;;;;;4862202;29;19932;-86
2023/10/23 11:35:17;;;;;;;;;;;12.60;99.90;;;;;;4861578;29;20296;-85
2023/10/23 11:37:43;;;;;;;;;;;12.60;99.90;;;;;;4861910;29;20264;-88
2023/10/23 11:40:09;;;;;;;;;;;12.70;99.90;;;;;;4863232;29;19928;-87
2023/10/23 11:42:48;;;;;;;;;;;12.80;99.90;;;;;;4862463;29;19935;-90
2023/10/23 11:45:15;;;;;;;;;;;12.80;99.90;;;;;;4861725;29;20311;-87
2023/10/23 11:47:40;;;;;;;;;;;12.90;99.90;;;;;;4860971;29;19928;-86
2023/10/23 11:50:16;;;;;;;;;;;12.90;99.90;;;;;;4862224;29;20019;-88
2023/10/23 11:52:45;;;;;;;;;;;12.90;99.90;;;;;;4861784;29;20374;-87
2023/10/23 11:55:12;;;;;;;;;;;12.90;99.90;;;;;;4861312;29;20439;-88
2023/10/23 11:57:40;;;;;;;;;;;12.90;99.90;;;;;;4862316;29;19983;-87
2023/10/23 12:00:11;;;;;;;;;;;12.90;99.90;;;;;;4845873;29;19932;-85
2023/10/23 12:02:37;;;;;;;;;;;12.80;99.90;;;;;;4862072;29;19929;-86
2023/10/23 12:05:03;;;;;;;;;;;12.80;99.90;;;;;;4861435;29;19928;-85
2023/10/23 12:07:29;;;;;;;;;;;12.70;99.90;;;;;;4862372;29;19951;-87
2023/10/23 12:09:54;;;;;;;;;;;12.70;99.90;;;;;;4862820;29;20019;-87
2023/10/23 12:12:20;;;;;;;;;;;12.60;99.90;;;;;;4845615;29;19928;-86
2023/10/23 12:14:45;;;;;;;;;;;12.60;99.90;;;;;;4861465;29;19936;-87
2023/10/23 12:17:11;;;;;;;;;;;12.70;99.90;;;;;;4862570;29;20482;-85
2023/10/23 12:19:36;;;;;;;;;;;12.70;99.90;;;;;;4860234;29;19935;-87
2023/10/23 12:22:02;;;;;;;;;;;12.70;99.90;;;;;;4862026;29;19935;-85
2023/10/23 12:24:28;;;;;;;;;;;12.70;99.90;;;;;;4845804;29;19990;-87
2023/10/23 12:26:53;;;;;;;;;;;12.70;99.90;;;;;;4861209;29;20295;-88
2023/10/23 12:29:19;;;;;;;;;;;12.80;99.90;;;;;;4845633;29;19947;-87
2023/10/23 12:31:45;;;;;;;;;;;12.80;99.90;;;;;;4829988;29;20019;-88
2023/10/23 12:34:11;;;;;;;;;;;12.90;99.90;;;;;;4845216;29;20010;-87
2023/10/23 12:36:36;;;;;;;;;;;12.90;99.90;;;;;;4845227;29;19928;-87
2023/10/23 12:39:02;;;;;;;;;;;12.90;99.90;;;;;;4845366;29;19928;-86
2023/10/23 12:41:27;;;;;;;;;;;13.00;99.90;;;;;;4862671;29;19928;-86
2023/10/23 12:43:53;;;;;;;;;;;13.10;99.90;;;;;;4866909;29;19928;-86
2023/10/23 12:46:19;;;;;;;;;;;13.10;99.90;;;;;;4835072;29;19928;-87
2023/10/23 12:48:44;;;;;;;;;;;13.10;99.90;;;;;;4830828;29;19928;-86
2023/10/23 12:51:10;;;;;;;;;;;13.20;99.90;;;;;;4864063;29;19928;-87
2023/10/23 12:53:37;;;;;;;;;;;13.10;99.90;;;;;;4864038;29;19975;-88
2023/10/23 12:56:02;;;;;;;;;;;13.10;99.90;;;;;;4861903;29;19929;-89
2023/10/23 12:58:29;;;;;;;;;;;13.10;99.90;;;;;;4862754;29;19953;-87
2023/10/23 13:00:55;;;;;;;;;;;13.10;99.90;;;;;;4862570;29;19928;-89
2023/10/23 13:03:20;;;;;;;;;;;13.10;99.90;;;;;;4863202;29;20283;-86
2023/10/23 13:05:46;;;;;;;;;;;13.00;99.90;;;;;;4862895;29;19935;-86
2023/10/23 13:08:11;;;;;;;;;;;13.00;99.90;;;;;;4830952;29;19980;-87
2023/10/23 13:10:37;;;;;;;;;;;13.00;99.90;;;;;;4862353;29;19928;-89
2023/10/23 13:13:03;;;;;;;;;;;13.00;99.90;;;;;;4860021;29;19943;-88
2023/10/23 13:15:29;;;;;;;;;;;13.10;99.90;;;;;;4859932;29;20015;-87
2023/10/23 13:17:55;;;;;;;;;;;13.10;99.90;;;;;;4860236;29;20014;-87
2023/10/23 13:20:21;;;;;;;;;;;13.10;99.90;;;;;;4862080;29;19928;-87
2023/10/23 13:22:47;;;;;;;;;;;13.00;99.90;;;;;;4861265;29;20369;-88
2023/10/23 13:25:14;;;;;;;;;;;12.90;99.90;;;;;;4860546;29;19928;-86
2023/10/23 13:27:40;;;;;;;;;;;12.80;99.90;;;;;;4861027;29;19978;-87
2023/10/23 13:30:06;;;;;;;;;;;12.70;99.90;;;;;;4859966;29;19988;-88
2023/10/23 13:32:33;;;;;;;;;;;12.70;99.90;;;;;;4860750;29;20376;-85
2023/10/23 13:35:01;;;;;;;;;;;12.60;99.90;;;;;;4844831;29;19964;-85
2023/10/23 13:37:26;;;;;;;;;;;12.60;99.90;;;;;;4860212;29;19935;-87
2023/10/23 13:39:52;;;;;;;;;;;12.70;99.90;;;;;;4860788;29;20022;-86
2023/10/23 13:42:17;;;;;;;;;;;12.60;99.90;;;;;;4861022;29;20384;-87
2023/10/23 13:44:43;;;;;;;;;;;12.60;99.90;;;;;;4861100;29;19978;-86
2023/10/23 13:47:08;;;;;;;;;;;12.50;99.90;;;;;;4861029;29;19929;-90
2023/10/23 13:49:34;;;;;;;;;;;12.50;99.90;;;;;;4862767;29;19928;-86
2023/10/23 13:52:00;;;;;;;;;;;12.50;99.90;;;;;;4863521;29;19984;-85
2023/10/23 13:54:25;;;;;;;;;;;12.50;99.90;;;;;;4863400;29;19951;-87
2023/10/23 13:56:51;;;;;;;;;;;12.50;99.90;;;;;;4848203;29;20376;-87
2023/10/23 13:59:16;;;;;;;;;;;12.40;99.90;;;;;;4864191;29;19928;-86
2023/10/23 14:01:42;;;;;;;;;;;12.50;99.90;;;;;;4864249;29;19935;-86
2023/10/23 14:04:07;;;;;;;;;;;12.40;99.90;;;;;;4864203;29;19936;-86
2023/10/23 14:06:33;;;;;;;;;;;12.40;99.90;;;;;;4864903;29;20011;-86
2023/10/23 14:08:59;;;;;;;;;;;12.40;99.90;;;;;;4863115;29;20388;-87
2023/10/23 14:11:24;;;;;;;;;;;12.40;99.90;;;;;;4863257;29;19950;-86
2023/10/23 14:13:50;;;;;;;;;;;12.30;99.90;;;;;;4862735;29;20291;-87
2023/10/23 14:16:15;;;;;;;;;;;12.30;99.90;;;;;;4862966;29;19948;-86
2023/10/23 14:18:41;;;;;;;;;;;12.20;99.90;;;;;;4847141;29;19936;-87
2023/10/23 14:21:07;;;;;;;;;;;12.20;99.90;;;;;;4863603;29;20345;-95